地図

経路データ

SID SEASON NUMBER BASIN SUBBASIN NAME ISO_TIME NATURE LAT LON WMO_WIND WMO_PRES WMO_AGENCY TRACK_TYPE DIST2LAND LANDFALL IFLAG USA_AGENCY USA_ATCF_ID USA_LAT USA_LON USA_RECORD USA_STATUS USA_WIND USA_PRES USA_SSHS USA_R34_NE USA_R34_SE USA_R34_SW USA_R34_NW USA_R50_NE USA_R50_SE USA_R50_SW USA_R50_NW USA_R64_NE USA_R64_SE USA_R64_SW USA_R64_NW USA_POCI USA_ROCI USA_RMW USA_EYE TOKYO_LAT TOKYO_LON TOKYO_GRADE TOKYO_WIND TOKYO_PRES TOKYO_R50_DIR TOKYO_R50_LONG TOKYO_R50_SHORT TOKYO_R30_DIR TOKYO_R30_LONG TOKYO_R30_SHORT TOKYO_LAND CMA_LAT CMA_LON CMA_CAT CMA_WIND CMA_PRES HKO_LAT HKO_LON HKO_CAT HKO_WIND HKO_PRES NEWDELHI_LAT NEWDELHI_LON NEWDELHI_GRADE NEWDELHI_WIND NEWDELHI_PRES NEWDELHI_CI NEWDELHI_DP NEWDELHI_POCI REUNION_LAT REUNION_LON REUNION_TYPE REUNION_WIND REUNION_PRES REUNION_TNUM REUNION_CI REUNION_RMW REUNION_R34_NE REUNION_R34_SE REUNION_R34_SW REUNION_R34_NW REUNION_R50_NE REUNION_R50_SE REUNION_R50_SW REUNION_R50_NW REUNION_R64_NE REUNION_R64_SE REUNION_R64_SW REUNION_R64_NW BOM_LAT BOM_LON BOM_TYPE BOM_WIND BOM_PRES BOM_TNUM BOM_CI BOM_RMW BOM_R34_NE BOM_R34_SE BOM_R34_SW BOM_R34_NW BOM_R50_NE BOM_R50_SE BOM_R50_SW BOM_R50_NW BOM_R64_NE BOM_R64_SE BOM_R64_SW BOM_R64_NW BOM_ROCI BOM_POCI BOM_EYE BOM_POS_METHOD BOM_PRES_METHOD NADI_LAT NADI_LON NADI_CAT NADI_WIND NADI_PRES WELLINGTON_LAT WELLINGTON_LON WELLINGTON_WIND WELLINGTON_PRES DS824_LAT DS824_LON DS824_STAGE DS824_WIND DS824_PRES TD9636_LAT TD9636_LON TD9636_STAGE TD9636_WIND TD9636_PRES TD9635_LAT TD9635_LON TD9635_WIND TD9635_PRES TD9635_ROCI NEUMANN_LAT NEUMANN_LON NEUMANN_CLASS NEUMANN_WIND NEUMANN_PRES MLC_LAT MLC_LON MLC_CLASS MLC_WIND MLC_PRES USA_GUST BOM_GUST BOM_GUST_PER REUNION_GUST REUNION_GUST_PER USA_SEAHGT USA_SEARAD_NE USA_SEARAD_SE USA_SEARAD_SW USA_SEARAD_NW STORM_SPEED STORM_DIR
1940181N04141 1940 29 WP MM NOT_NAMED 1940-06-29 09:00:00 NR 3.80000 141.000 main 677 677 __________O___ -1 3.80000 141.000 7 15 330
1940181N04141 1940 29 WP MM NOT_NAMED 1940-06-29 12:00:00 NR 4.43453 140.638 main 723 723 __________P___ -1 4.43453 140.638 7 14 330
1940181N04141 1940 29 WP MM NOT_NAMED 1940-06-29 15:00:00 NR 5.03526 140.291 main 775 775 __________P___ -1 5.03526 140.291 7 12 327
1940181N04141 1940 29 WP MM NOT_NAMED 1940-06-29 18:00:00 NR 5.45466 139.978 main 820 817 __________P___ -1 5.56832 139.973 7 9 323
1940181N04141 1940 29 WP MM NOT_NAMED 1940-06-29 21:00:00 NR 5.74896 139.754 main 837 837 __________O___ -1 6.00000 139.700 7 6 322
1940181N04141 1940 29 WP MM NOT_NAMED 1940-06-30 00:00:00 NR 5.96080 139.583 main 865 860 __________P___ -1 6.31014 139.482 7 5 321
1940181N04141 1940 29 WP MM NOT_NAMED 1940-06-30 03:00:00 NR 6.13896 139.435 main 865 865 __________P___ -1 6.53229 139.305 7 5 322
1940181N04141 1940 29 WP MM NOT_NAMED 1940-06-30 06:00:00 NR 6.35665 139.275 main 890 886 __________P___ -1 6.71330 139.150 7 6 324
1940181N04141 1940 29 WP MM NOT_NAMED 1940-06-30 09:00:00 NR 6.57984 139.109 main 902 902 __________O___ -1 6.90000 139.000 7 6 325
1940181N04141 1940 29 WP MM NOT_NAMED 1940-06-30 12:00:00 NR 6.85420 138.924 main 924 924 __________P___ -1 7.18091 138.825 7 7 326
1940181N04141 1940 29 WP MM NOT_NAMED 1940-06-30 15:00:00 NR 7.13951 138.733 main 938 938 __________P___ -1 7.47247 138.650 7 7 326
1940181N04141 1940 29 WP MM NOT_NAMED 1940-06-30 18:00:00 NR 7.42639 138.538 main 963 963 __________P___ -1 7.75279 138.475 7 7 326
1940181N04141 1940 29 WP MM NOT_NAMED 1940-06-30 21:00:00 NR 7.70325 138.347 main 987 987 __________O___ -1 8.00000 138.300 7 6 324
1940181N04141 1940 29 WP MM NOT_NAMED 1940-07-01 00:00:00 NR 7.93835 138.160 main 1005 1005 __________P___ -1 8.14930 138.141 7 6 321
1940181N04141 1940 29 WP MM NOT_NAMED 1940-07-01 03:00:00 NR 8.16475 137.965 main 1032 1029 __________P___ -1 8.26988 137.979 7 6 319
1940181N04141 1940 29 WP MM NOT_NAMED 1940-07-01 06:00:00 NR 8.40277 137.752 main 1048 1045 __________P___ -1 8.40553 137.803 7 7 319
1940181N04141 1940 29 WP MM NOT_NAMED 1940-07-01 09:00:00 NR 8.67751 137.509 main 1074 1074 __________O___ -1 8.60000 137.600 7 8 321
1940181N04141 1940 29 WP MM NOT_NAMED 1940-07-01 12:00:00 NR 9.02687 137.241 main 1101 1101 __________P___ -1 8.93871 137.366 7 9 323
1940181N04141 1940 29 WP MM NOT_NAMED 1940-07-01 15:00:00 NR 9.40123 136.954 main 1142 1133 __________P___ -1 9.33493 137.103 7 9 322
1940181N04141 1940 29 WP MM NOT_NAMED 1940-07-01 18:00:00 NR 9.76934 136.656 main 1135 1107 __________P___ -1 9.73869 136.813 7 9 320
1940181N04141 1940 29 WP MM NOT_NAMED 1940-07-01 21:00:00 NR 10.0942 136.359 main 1110 1083 __________O___ -1 10.1000 136.500 7 8 314
1940181N04141 1940 29 WP MM NOT_NAMED 1940-07-02 00:00:00 NR 10.3376 136.059 main 1083 1058 __________P___ -1 10.3178 136.175 7 8 308
1940181N04141 1940 29 WP MM NOT_NAMED 1940-07-02 03:00:00 NR 10.5576 135.750 main 1050 1031 __________P___ -1 10.4924 135.829 7 8 306
1940181N04141 1940 29 WP MM NOT_NAMED 1940-07-02 06:00:00 NR 10.7854 135.434 main 1022 995 __________P___ -1 10.6709 135.469 7 8 309
1940181N04141 1940 29 WP MM NOT_NAMED 1940-07-02 09:00:00 NR 11.0633 135.125 main 997 973 __________O___ -1 10.9000 135.100 7 9 316
1940181N04141 1940 29 WP MM NOT_NAMED 1940-07-02 12:00:00 NR 11.4239 134.806 main 973 950 __________P___ -1 11.2831 134.717 7 10 319
1940181N04141 1940 29 WP MM NOT_NAMED 1940-07-02 15:00:00 NR 11.8052 134.473 main 953 914 __________P___ -1 11.7151 134.328 7 10 318
1940181N04141 1940 29 WP MM NOT_NAMED 1940-07-02 18:00:00 NR 12.1697 134.125 main 914 885 __________P___ -1 12.1394 133.951 7 10 313
1940181N04141 1940 29 WP MM NOT_NAMED 1940-07-02 21:00:00 NR 12.4729 133.753 main 887 849 __________O___ -1 12.5000 133.600 7 9 305
1940181N04141 1940 29 WP MM NOT_NAMED 1940-07-03 00:00:00 NR 12.6751 133.398 main 849 819 __________P___ -1 12.6848 133.324 7 8 298
1940181N04141 1940 29 WP MM NOT_NAMED 1940-07-03 03:00:00 NR 12.8419 133.049 main 809 783 __________P___ -1 12.8068 133.071 7 8 297
1940181N04141 1940 29 WP MM NOT_NAMED 1940-07-03 06:00:00 NR 13.0127 132.704 main 783 757 __________P___ -1 12.9254 132.808 7 8 300
1940181N04141 1940 29 WP MM NOT_NAMED 1940-07-03 09:00:00 NR 13.2302 132.362 main 757 719 __________O___ -1 13.1000 132.500 7 9 306
1940181N04141 1940 29 WP MM NOT_NAMED 1940-07-03 12:00:00 NR 13.5288 131.973 main 719 685 __________P___ -1 13.4229 132.077 7 10 309
1940181N04141 1940 29 WP MM NOT_NAMED 1940-07-03 15:00:00 NR 13.8611 131.570 main 687 653 __________P___ -1 13.8056 131.609 7 10 311
1940181N04141 1940 29 WP MM NOT_NAMED 1940-07-03 18:00:00 NR 14.2052 131.168 main 656 628 __________P___ -1 14.2105 131.136 7 10 311
1940181N04141 1940 29 WP MM NOT_NAMED 1940-07-03 21:00:00 NR 14.5252 130.786 main 628 609 __________O___ -1 14.6000 130.700 7 9 311
1940181N04141 1940 29 WP MM NOT_NAMED 1940-07-04 00:00:00 NR 14.7944 130.472 main 614 597 __________P___ -1 14.8841 130.396 7 8 313
1940181N04141 1940 29 WP MM NOT_NAMED 1940-07-04 03:00:00 NR 15.0677 130.177 main 602 588 __________P___ -1 15.1537 130.127 7 8 315
1940181N04141 1940 29 WP MM NOT_NAMED 1940-07-04 06:00:00 NR 15.3732 129.873 main 595 583 __________P___ -1 15.4465 129.845 7 9 317
1940181N04141 1940 29 WP MM NOT_NAMED 1940-07-04 09:00:00 NR 15.7450 129.525 main 583 566 __________O___ -1 15.8000 129.500 7 11 318
1940181N04141 1940 29 WP MM NOT_NAMED 1940-07-04 12:00:00 NR 16.2111 129.078 main 566 548 __________P___ -1 16.3021 128.963 7 13 318
1940181N04141 1940 29 WP MM NOT_NAMED 1940-07-04 15:00:00 NR 16.7122 128.603 main 548 542 __________P___ -1 16.8593 128.366 7 13 318
1940181N04141 1940 29 WP MM NOT_NAMED 1940-07-04 18:00:00 NR 17.2058 128.143 main 541 541 __________P___ -1 17.4116 127.785 7 13 319
1940181N04141 1940 29 WP MM NOT_NAMED 1940-07-04 21:00:00 NR 17.6466 127.739 main 542 539 __________O___ -1 17.9000 127.300 7 10 320
1940181N04141 1940 29 WP MM NOT_NAMED 1940-07-05 00:00:00 NR 18.0090 127.444 main 531 517 __________P___ -1 18.2458 127.019 7 9 324
1940181N04141 1940 29 WP MM NOT_NAMED 1940-07-05 03:00:00 NR 18.3319 127.210 main 517 496 __________P___ -1 18.5237 126.843 7 8 327
1940181N04141 1940 29 WP MM NOT_NAMED 1940-07-05 06:00:00 NR 18.6324 127.010 main 496 477 __________P___ -1 18.7648 126.720 7 7 328
1940181N04141 1940 29 WP MM NOT_NAMED 1940-07-05 09:00:00 NR 18.9305 126.820 main 477 461 __________O___ -1 19.0000 126.600 7 7 327
1940181N04141 1940 29 WP MM NOT_NAMED 1940-07-05 12:00:00 NR 19.2387 126.599 main 461 448 __________P___ -1 19.2628 126.407 7 7 326
1940181N04141 1940 29 WP MM NOT_NAMED 1940-07-05 15:00:00 NR 19.5442 126.378 main 448 434 __________P___ -1 19.5275 126.207 7 7 325
1940181N04141 1940 29 WP MM NOT_NAMED 1940-07-05 18:00:00 NR 19.8517 126.152 main 442 423 __________P___ -1 19.8034 126.004 7 8 326
1940181N04141 1940 29 WP MM NOT_NAMED 1940-07-05 21:00:00 NR 20.1639 125.928 main 428 424 __________O___ -1 20.1000 125.800 7 8 328
1940181N04141 1940 29 WP MM NOT_NAMED 1940-07-06 00:00:00 NR 20.4886 125.725 main 426 424 __________P___ -1 20.4278 125.648 7 8 329
1940181N04141 1940 29 WP MM NOT_NAMED 1940-07-06 03:00:00 NR 20.8239 125.505 main 429 428 __________P___ -1 20.7765 125.488 7 8 326
1940181N04141 1940 29 WP MM NOT_NAMED 1940-07-06 06:00:00 NR 21.1685 125.242 main 436 401 __________P___ -1 21.1369 125.285 7 9 322
1940181N04141 1940 29 WP MM NOT_NAMED 1940-07-06 09:00:00 NR 21.5315 124.915 main 401 345 __________O___ -1 21.5000 125.000 7 10 317
1940181N04141 1940 29 WP MM NOT_NAMED 1940-07-06 12:00:00 NR 21.9044 124.499 main 345 294 __________P___ -1 21.8791 124.579 7 11 312
1940181N04141 1940 29 WP MM NOT_NAMED 1940-07-06 15:00:00 NR 22.2675 124.024 main 281 222 __________P___ -1 22.2534 124.077 7 11 308
1940181N04141 1940 29 WP MM NOT_NAMED 1940-07-06 18:00:00 NR 22.6005 123.518 main 222 165 __________P___ -1 22.6009 123.535 7 11 303
1940181N04141 1940 29 WP MM NOT_NAMED 1940-07-06 21:00:00 NR 22.8824 123.012 main 165 122 __________O___ -1 22.9000 123.000 7 10 299
1940181N04141 1940 29 WP MM NOT_NAMED 1940-07-07 00:00:00 NR 23.1033 122.542 main 112 71 __________P___ -1 23.1121 122.554 7 10 295
1940181N04141 1940 29 WP MM NOT_NAMED 1940-07-07 03:00:00 NR 23.2903 122.069 main 71 20 __________P___ -1 23.2785 122.120 7 9 292
1940181N04141 1940 29 WP MM NOT_NAMED 1940-07-07 06:00:00 NR 23.4654 121.588 main 20 0 __________P___ -1 23.4307 121.676 7 10 293
1940181N04141 1940 29 WP MM NOT_NAMED 1940-07-07 09:00:00 NR 23.6634 121.097 main 0 0 __________O___ -1 23.6000 121.200 7 10 295
1940181N04141 1940 29 WP MM NOT_NAMED 1940-07-07 12:00:00 NR 23.9003 120.575 main 0 0 __________P___ -1 23.8566 120.670 7 11 296
1940181N04141 1940 29 WP MM NOT_NAMED 1940-07-07 15:00:00 NR 24.1344 120.027 main 32 32 __________P___ -1 24.1296 120.104 7 11 293
1940181N04141 1940 29 WP MM NOT_NAMED 1940-07-07 18:00:00 NR 24.3439 119.455 main 87 23 __________P___ -1 24.3877 119.511 7 11 289
1940181N04141 1940 29 WP MM NOT_NAMED 1940-07-07 21:00:00 NR 24.4923 118.886 main 23 0 __________O___ -1 24.6000 118.900 7 10 283
1940181N04141 1940 29 WP MM NOT_NAMED 1940-07-08 00:00:00 NR 24.5721 118.350 main 0 0 __________P___ -1 24.7050 118.384 7 10 278
1940181N04141 1940 29 WP MM NOT_NAMED 1940-07-08 03:00:00 NR 24.6327 117.772 main 0 0 __________P___ -1 24.7658 117.840 7 11 277
1940181N04141 1940 29 WP MM NOT_NAMED 1940-07-08 06:00:00 NR 24.7096 117.101 main 0 0 __________P___ -1 24.8191 117.202 7 14 279
1940181N04141 1940 29 WP MM NOT_NAMED 1940-07-08 09:00:00 NR 24.8494 116.285 main 0 0 __________O___ -1 24.9000 116.400 7 17 281
1940181N04141 1940 29 WP MM NOT_NAMED 1940-07-08 12:00:00 NR 25.0446 115.257 main 0 0 __________P___ -1 25.0532 115.264 7 20 282
1940181N04141 1940 29 WP MM NOT_NAMED 1940-07-08 15:00:00 NR 25.2549 114.127 main 0 0 __________P___ -1 25.2301 113.975 7 21 281
1940181N04141 1940 29 WP MM NOT_NAMED 1940-07-08 18:00:00 NR 25.4579 112.987 main 0 0 __________P___ -1 25.4158 112.673 7 20 281
1940181N04141 1940 29 WP MM NOT_NAMED 1940-07-08 21:00:00 NR 25.6371 111.923 main 0 0 __________O___ -1 25.6000 111.500 7 19 280
1940181N04141 1940 29 WP MM NOT_NAMED 1940-07-09 00:00:00 NR 25.7909 110.929 main 0 0 __________P___ -1 25.7784 110.563 7 17 280
1940181N04141 1940 29 WP MM NOT_NAMED 1940-07-09 03:00:00 NR 25.9370 110.100 main 0 0 __________P___ -1 25.9534 109.830 7 14 282
1940181N04141 1940 29 WP MM NOT_NAMED 1940-07-09 06:00:00 NR 26.0848 109.354 main 0 0 __________P___ -1 26.1272 109.232 7 13 286
1940181N04141 1940 29 WP MM NOT_NAMED 1940-07-09 09:00:00 NR 26.3000 108.700 main 0 __________O___ -1 26.3000 108.700 7 13 290

デジタル台風データ・検索

IBTrACS Databaseについて

本データベースは、米国NOAAが公開する1842年以降の世界の熱帯低気圧のベストトラックデータアーカイブInternational Best Track Archive for Climate Stewardship (IBTrACS)を、ウェブで閲覧しやすい形式に変換したものです。

最終更新日:2021-11-26